world map with LTAB marked

LTAB - Airport

This information may not be accurate or current and is not valid for navigation or flight planning. No warranty of fitness for any purpose is made or implied.

flag of Turkey

Donate via PayPal

Additional information is available on the NEW Great Circle Mapper

Location
City:  Ankara, Turkey
Name:Guvercinlik
ICAO:LTAB

Details
Type:Airport (Aerodrome, Airfield)
Use:Military
Latitude:39°56'06"N (39.934950)
Longitude:32°44'27"E (32.740775)
Datum:WGS 1984
Elevation:2694 ft (821 m)
Runways:2
Longest:6635 × 98 ft (2022 × 30 m)

Time
Timezone:UTC+3 (DST+5)
Local Time:

Weather
METAR:LTAB  041350Z 00000KT CAVOK 16/M01 Q1022 NOSIG RMK RWY06 04003KT 340V110
TAF:LTAB  (expired)

Related Locations
Nearby:
Farthest:RVV: 11324 mi / 18224 km
Raivavae, Tubuai Islands, Austral Islands, PF

Find:

   beyond  
but within

Other Information
Maps:
Sources:

  


 


Great Circle Mapper   Great Circle Mapper
Great Circle Mapper FAQ   Great Circle Mapper FAQ
  Karl's Home Page
KLSē   KLSē Home
   GC on Facebook
Airlines of the World   Airlines of the World
Donate via PayPal


Copyright © 2004-2019, Karl L. Swartz. All rights reserved.
All trademarks mentioned herein belong to their respective owners.

Please see credits for attribution and copyright information.

Karl Swartz <karl@kls2.com>
  Powered by FreeBSD
Valid HTML 4.01!
Labeled with ICRA
hCard Microformat
Geo Microformat